createdAt,value
2022-08-16T00:01:12.276Z,4.55
2022-08-16T00:03:40.937Z,4.20
2022-08-16T00:06:08.286Z,4.40
2022-08-16T00:08:37.834Z,4.25
2022-08-16T00:11:15.366Z,4.03
2022-08-16T00:13:43.653Z,4.13
2022-08-16T00:17:00.492Z,4.13
2022-08-16T00:19:09.025Z,4.22
2022-08-16T00:21:36.190Z,4.03
2022-08-16T00:24:05.107Z,3.90
2022-08-16T00:26:43.943Z,3.83
2022-08-16T00:29:12.894Z,4.38
2022-08-16T00:31:58.622Z,4.22
2022-08-16T00:34:44.457Z,4.15
2022-08-16T00:39:44.958Z,4.18
2022-08-16T00:42:12.457Z,4.10
2022-08-16T00:44:40.760Z,4.68
2022-08-16T00:47:10.826Z,4.20
2022-08-16T00:49:44.361Z,4.65
2022-08-16T00:52:29.462Z,4.53
2022-08-16T00:54:57.857Z,4.45
2022-08-16T00:57:25.057Z,4.60
2022-08-16T00:59:58.675Z,5.00
2022-08-16T01:02:31.395Z,5.47
2022-08-16T01:05:10.900Z,5.47
2022-08-16T01:07:52.007Z,4.70
2022-08-16T01:10:31.912Z,4.43
2022-08-16T01:13:01.516Z,4.80
2022-08-16T01:15:31.844Z,5.00
2022-08-16T01:17:59.893Z,4.93
2022-08-16T01:20:30.378Z,4.10
2022-08-16T01:23:17.174Z,5.50
2022-08-16T01:26:00.357Z,5.00
2022-08-16T01:28:36.968Z,4.95
2022-08-16T01:31:08.436Z,4.80
2022-08-16T01:33:36.091Z,4.72
2022-08-16T01:36:09.459Z,5.00
2022-08-16T01:38:41.175Z,4.53
2022-08-16T01:41:19.158Z,4.68
2022-08-16T01:43:53.578Z,4.85
2022-08-16T01:46:39.508Z,4.93
2022-08-16T01:49:12.322Z,4.30
2022-08-16T01:51:42.150Z,4.82
2022-08-16T01:54:11.109Z,4.47
2022-08-16T01:56:41.143Z,5.35
2022-08-16T01:59:15.996Z,4.63
2022-08-16T02:01:49.482Z,4.97
2022-08-16T02:04:48.394Z,5.65
2022-08-16T02:07:08.974Z,5.35
2022-08-16T02:09:38.911Z,5.45
2022-08-16T02:12:51.585Z,5.68
2022-08-16T02:14:55.099Z,5.57
2022-08-16T02:17:22.709Z,5.80
2022-08-16T02:19:59.164Z,5.65
2022-08-16T02:22:46.560Z,6.50
2022-08-16T02:25:15.862Z,5.60
2022-08-16T02:27:44.307Z,5.85
2022-08-16T02:30:36.760Z,6.43
2022-08-16T02:33:05.581Z,5.50
2022-08-16T02:35:34.027Z,5.82
2022-08-16T02:38:08.905Z,6.15
2022-08-16T02:40:36.410Z,5.88
2022-08-16T02:43:04.623Z,6.60
2022-08-16T02:45:32.321Z,6.13
2022-08-16T02:48:30.067Z,6.10
2022-08-16T02:50:54.451Z,6.18
2022-08-16T02:53:30.473Z,5.55
2022-08-16T02:55:57.906Z,5.72
2022-08-16T03:00:57.457Z,5.07
2022-08-16T03:03:25.520Z,5.20
2022-08-16T03:05:53.458Z,4.57
2022-08-16T03:08:52.073Z,5.55
2022-08-16T03:11:16.829Z,5.15
2022-08-16T03:13:51.456Z,5.38
2022-08-16T03:16:38.414Z,5.57
2022-08-16T03:19:08.645Z,4.93
2022-08-16T03:21:37.822Z,4.97
2022-08-16T03:24:06.447Z,4.95
2022-08-16T03:26:53.747Z,5.13
2022-08-16T03:29:27.291Z,5.10
2022-08-16T03:31:59.339Z,4.75
2022-08-16T03:34:27.377Z,4.97
2022-08-16T03:36:55.359Z,4.40
2022-08-16T03:39:23.095Z,4.15
2022-08-16T03:41:59.119Z,5.18
2022-08-16T03:44:43.931Z,4.28
2022-08-16T03:49:41.113Z,4.68
2022-08-16T03:54:36.485Z,4.75
2022-08-16T03:57:05.291Z,4.95
2022-08-16T03:59:32.888Z,4.43
2022-08-16T04:02:01.678Z,4.85
2022-08-16T04:04:32.785Z,5.50
2022-08-16T04:07:02.917Z,4.90
2022-08-16T04:09:31.080Z,4.70
2022-08-16T04:12:03.464Z,4.57
2022-08-16T04:14:46.686Z,5.40
2022-08-16T04:17:15.653Z,5.40
2022-08-16T04:19:45.506Z,5.88
2022-08-16T04:22:13.994Z,5.50
2022-08-16T04:24:54.904Z,5.30
2022-08-16T04:27:24.625Z,6.00
2022-08-16T04:30:03.002Z,5.28
2022-08-16T04:32:31.110Z,5.47
2022-08-16T04:34:58.936Z,5.55
2022-08-16T04:37:27.359Z,5.40
2022-08-16T04:39:57.240Z,5.47
2022-08-16T04:42:26.562Z,5.00
2022-08-16T04:44:58.182Z,5.82
2022-08-16T04:49:52.946Z,5.55
2022-08-16T04:52:33.312Z,5.55
2022-08-16T04:55:03.671Z,5.68
2022-08-16T04:57:30.915Z,5.35
2022-08-16T04:59:58.078Z,5.95
2022-08-16T05:02:42.638Z,5.50
2022-08-16T05:05:17.150Z,6.40
2022-08-16T05:07:59.732Z,5.40
2022-08-16T05:10:28.039Z,6.38
2022-08-16T05:12:56.902Z,6.50
2022-08-16T05:15:24.074Z,6.55
2022-08-16T05:17:58.386Z,6.07
2022-08-16T05:20:39.084Z,6.80
2022-08-16T05:23:14.989Z,6.32
2022-08-16T05:25:48.182Z,6.07
2022-08-16T05:28:16.819Z,6.60
2022-08-16T05:30:43.999Z,6.50
2022-08-16T05:33:16.419Z,6.35
2022-08-16T05:35:54.878Z,6.30
2022-08-16T05:38:33.114Z,6.95
2022-08-16T05:41:07.015Z,6.18
2022-08-16T05:43:43.255Z,6.70
2022-08-16T05:46:30.395Z,5.90
2022-08-16T05:49:05.814Z,5.63
2022-08-16T05:51:39.938Z,6.65
2022-08-16T05:54:14.184Z,6.82
2022-08-16T05:56:42.999Z,6.57
2022-08-16T05:59:10.823Z,6.72
2022-08-16T06:01:39.073Z,6.32
2022-08-16T06:04:12.872Z,5.85
2022-08-16T06:06:43.462Z,6.97
2022-08-16T06:09:23.197Z,6.88
2022-08-16T06:11:50.314Z,6.55
2022-08-16T06:14:18.040Z,5.80
2022-08-16T06:16:50.605Z,6.15
2022-08-16T06:19:18.282Z,6.40
2022-08-16T06:21:46.022Z,6.43
2022-08-16T06:24:54.242Z,6.70
2022-08-16T06:27:09.676Z,7.05
2022-08-16T06:29:36.837Z,7.10
2022-08-16T06:32:04.484Z,7.35
2022-08-16T06:34:56.006Z,7.13
2022-08-16T06:37:19.783Z,7.40
2022-08-16T06:39:50.215Z,8.13
2022-08-16T06:42:18.926Z,6.90
2022-08-16T06:44:46.473Z,7.03
2022-08-16T06:47:17.131Z,7.93
2022-08-16T06:49:52.620Z,5.47
2022-08-16T06:52:57.981Z,7.63
2022-08-16T06:55:12.925Z,7.35
2022-08-16T06:57:41.422Z,8.48
2022-08-16T07:00:24.834Z,6.07
2022-08-16T07:02:56.570Z,7.18
2022-08-16T07:05:27.322Z,6.60
2022-08-16T07:08:11.616Z,6.75
2022-08-16T07:10:41.518Z,6.80
2022-08-16T07:13:12.216Z,6.30
2022-08-16T07:15:50.685Z,7.20
2022-08-16T07:18:21.618Z,8.93
2022-08-16T07:20:56.837Z,8.52
2022-08-16T07:23:38.723Z,6.13
2022-08-16T07:26:08.464Z,6.03
2022-08-16T07:28:35.664Z,5.75
2022-08-16T07:31:03.316Z,6.25
2022-08-16T07:33:52.487Z,7.03
2022-08-16T07:36:22.720Z,7.63
2022-08-16T07:38:50.516Z,6.85
2022-08-16T07:41:18.598Z,8.00
2022-08-16T07:43:46.203Z,6.55
2022-08-16T07:46:37.601Z,5.50
2022-08-16T07:49:03.016Z,7.70
2022-08-16T07:54:09.090Z,7.35
2022-08-16T07:56:38.164Z,6.25
2022-08-16T07:59:06.034Z,5.95
2022-08-16T08:01:33.351Z,5.38
2022-08-16T08:04:02.914Z,5.50
2022-08-16T08:06:32.258Z,8.45
2022-08-16T08:09:00.309Z,6.25
2022-08-16T08:11:28.752Z,6.60
2022-08-16T08:13:57.602Z,6.57
2022-08-16T08:16:31.234Z,5.65
2022-08-16T08:19:01.039Z,5.75
2022-08-16T08:21:58.355Z,5.88
2022-08-16T08:24:17.631Z,6.32
2022-08-16T08:26:49.858Z,6.43
2022-08-16T08:29:22.857Z,5.45
2022-08-16T08:31:52.087Z,5.40
2022-08-16T08:34:21.229Z,7.00
2022-08-16T08:36:54.334Z,5.65
2022-08-16T08:39:22.569Z,7.60
2022-08-16T08:41:51.226Z,9.48
2022-08-16T08:44:29.025Z,6.45
2022-08-16T08:47:00.361Z,5.25
2022-08-16T08:49:47.007Z,5.90
2022-08-16T08:52:34.171Z,5.65
2022-08-16T08:55:09.176Z,5.60
2022-08-16T08:57:37.095Z,5.95
2022-08-16T09:00:13.250Z,5.90
2022-08-16T09:02:42.187Z,5.28
2022-08-16T09:05:15.593Z,5.93
2022-08-16T09:08:00.707Z,5.22
2022-08-16T09:10:29.350Z,6.50
2022-08-16T09:12:56.871Z,6.07
2022-08-16T09:15:24.282Z,7.55
2022-08-16T09:17:56.766Z,5.20
2022-08-16T09:20:25.546Z,6.97
2022-08-16T09:22:53.114Z,5.75
2022-08-16T09:25:26.024Z,6.88
2022-08-16T09:27:58.008Z,5.47
2022-08-16T09:30:33.182Z,7.05
2022-08-16T09:33:02.230Z,5.15
2022-08-16T09:35:30.787Z,8.02
2022-08-16T09:38:01.073Z,5.82
2022-08-16T09:40:33.048Z,6.18
2022-08-16T09:43:21.043Z,5.53
2022-08-16T09:45:59.941Z,6.50
2022-08-16T09:51:12.789Z,5.18
2022-08-16T09:53:40.242Z,5.30
2022-08-16T09:56:27.614Z,5.45
2022-08-16T09:59:04.865Z,4.50
2022-08-16T10:01:36.508Z,4.88
2022-08-16T10:04:09.861Z,4.88
2022-08-16T10:06:53.452Z,6.80
2022-08-16T10:09:21.034Z,7.22
2022-08-16T10:12:11.364Z,5.65
2022-08-16T10:14:46.316Z,7.22
2022-08-16T10:19:43.217Z,4.75
2022-08-16T10:22:12.912Z,5.43
2022-08-16T10:24:40.604Z,5.05
2022-08-16T10:27:27.060Z,4.50
2022-08-16T10:30:00.870Z,5.95
2022-08-16T10:32:34.244Z,6.32
2022-08-16T10:35:03.912Z,6.30
2022-08-16T10:37:32.728Z,6.07
2022-08-16T10:40:05.350Z,4.93
2022-08-16T10:42:32.843Z,4.95
2022-08-16T10:45:00.485Z,5.97
2022-08-16T10:47:28.204Z,6.57
2022-08-16T10:49:59.491Z,6.90
2022-08-16T10:52:26.733Z,7.18
2022-08-16T10:55:41.062Z,5.38
2022-08-16T10:57:48.960Z,7.03
2022-08-16T11:00:21.643Z,5.78
2022-08-16T11:02:59.802Z,5.38
2022-08-16T11:05:58.676Z,5.28
2022-08-16T11:08:16.346Z,6.60
2022-08-16T11:11:06.422Z,5.25
2022-08-16T11:17:00.758Z,5.65
2022-08-16T11:19:13.118Z,5.40
2022-08-16T11:24:41.679Z,6.45
2022-08-16T11:27:20.458Z,5.72
2022-08-16T11:29:48.782Z,6.43
2022-08-16T11:32:19.989Z,6.13
2022-08-16T11:35:14.240Z,7.72
2022-08-16T11:38:05.878Z,6.18
2022-08-16T11:40:32.549Z,5.18
2022-08-16T11:43:01.302Z,5.05
2022-08-16T11:45:28.591Z,5.20
2022-08-16T11:48:01.627Z,5.03
2022-08-16T11:50:28.821Z,5.25
2022-08-16T11:52:55.957Z,5.10
2022-08-16T11:55:23.543Z,4.70
2022-08-16T11:57:56.442Z,5.30
2022-08-16T12:00:33.882Z,5.03
2022-08-16T12:03:12.370Z,4.70
2022-08-16T12:05:41.141Z,5.13
2022-08-16T12:08:09.696Z,4.95
2022-08-16T12:10:38.975Z,4.97
2022-08-16T12:13:07.340Z,5.00
2022-08-16T12:15:37.918Z,4.30
2022-08-16T12:18:06.814Z,4.30
2022-08-16T12:20:35.635Z,4.50
2022-08-16T12:25:31.781Z,4.45
2022-08-16T12:33:03.138Z,5.00
2022-08-16T12:35:32.702Z,4.28
2022-08-16T12:38:01.596Z,4.20
2022-08-16T12:40:50.889Z,5.18
2022-08-16T12:43:23.570Z,4.53
2022-08-16T12:45:52.217Z,4.38
2022-08-16T12:48:39.417Z,4.10
2022-08-16T12:51:19.570Z,5.20
2022-08-16T12:53:51.622Z,4.78
2022-08-16T12:56:20.192Z,4.30
2022-08-16T13:01:22.512Z,4.07
2022-08-16T13:03:55.895Z,3.95
2022-08-16T13:06:37.213Z,3.60
2022-08-16T13:11:55.420Z,3.50
2022-08-16T13:14:32.878Z,3.40
2022-08-16T13:17:02.613Z,3.58
2022-08-16T13:20:03.427Z,3.30
2022-08-16T13:22:19.705Z,3.10
2022-08-16T13:24:47.304Z,2.92
2022-08-16T13:27:14.437Z,2.45
2022-08-16T13:29:44.013Z,2.80
2022-08-16T13:32:39.439Z,3.00
2022-08-16T13:34:59.375Z,2.90
2022-08-16T13:37:28.384Z,2.85
2022-08-16T13:39:55.775Z,3.10
2022-08-16T13:42:22.969Z,2.55
2022-08-16T13:44:56.448Z,2.80
2022-08-16T13:47:30.315Z,2.70
2022-08-16T13:49:57.724Z,2.65
2022-08-16T13:52:25.350Z,2.60
2022-08-16T13:55:01.431Z,2.65
2022-08-16T13:57:52.988Z,2.60
2022-08-16T14:00:19.386Z,2.97
2022-08-16T14:02:48.518Z,2.72
2022-08-16T14:05:21.991Z,2.40
2022-08-16T14:07:52.537Z,2.47
2022-08-16T14:10:20.288Z,2.30
2022-08-16T14:12:48.573Z,2.42
2022-08-16T14:15:16.331Z,2.30
2022-08-16T14:18:15.711Z,2.83
2022-08-16T14:20:31.273Z,2.13
2022-08-16T14:22:58.878Z,2.40
2022-08-16T14:25:27.036Z,2.25
2022-08-16T14:27:54.910Z,2.35
2022-08-16T14:30:23.638Z,1.98
2022-08-16T14:32:51.791Z,2.58
2022-08-16T14:35:21.458Z,2.83
2022-08-16T14:37:57.203Z,2.47
2022-08-16T14:40:24.513Z,2.90
2022-08-16T14:42:56.735Z,2.45
2022-08-16T14:45:26.730Z,2.60
2022-08-16T14:47:54.384Z,2.80
2022-08-16T14:50:23.866Z,2.50
2022-08-16T14:52:56.358Z,2.83
2022-08-16T14:55:25.893Z,2.38
2022-08-16T14:57:54.576Z,2.92
2022-08-16T15:00:26.981Z,2.22
2022-08-16T15:03:01.370Z,2.75
2022-08-16T15:05:32.596Z,2.30
2022-08-16T15:07:59.890Z,2.40
2022-08-16T15:10:29.381Z,3.15
2022-08-16T15:13:00.810Z,2.58
2022-08-16T15:15:29.187Z,3.03
2022-08-16T15:17:57.510Z,2.92
2022-08-16T15:20:26.743Z,3.47
2022-08-16T15:22:54.836Z,3.33
2022-08-16T15:25:29.160Z,3.22
2022-08-16T15:27:57.326Z,3.53
2022-08-16T15:30:56.776Z,3.53
2022-08-16T15:33:15.414Z,3.22
2022-08-16T15:35:43.417Z,3.25
2022-08-16T15:38:43.525Z,3.40
2022-08-16T15:40:59.289Z,3.10
2022-08-16T15:43:39.436Z,3.40
2022-08-16T15:49:03.451Z,3.90
2022-08-16T15:51:31.999Z,3.80
2022-08-16T15:54:29.154Z,3.80
2022-08-16T15:56:51.347Z,3.42
2022-08-16T15:59:19.771Z,3.83
2022-08-16T16:01:47.402Z,3.40
2022-08-16T16:04:14.989Z,3.65
2022-08-16T16:06:54.945Z,3.63
2022-08-16T16:09:34.600Z,4.13
2022-08-16T16:12:16.318Z,3.20
2022-08-16T16:14:52.422Z,3.38
2022-08-16T16:17:19.520Z,3.50
2022-08-16T16:19:49.687Z,3.55
2022-08-16T16:22:21.331Z,4.03
2022-08-16T16:24:51.253Z,4.22
2022-08-16T16:27:18.493Z,3.55
2022-08-16T16:29:58.172Z,3.80
2022-08-16T16:32:34.455Z,3.92
2022-08-16T16:35:02.456Z,3.42
2022-08-16T16:37:31.198Z,3.90
2022-08-16T16:39:58.780Z,3.60
2022-08-16T16:42:29.917Z,4.53
2022-08-16T16:45:02.101Z,4.05
2022-08-16T16:47:48.293Z,3.70
2022-08-16T16:50:16.528Z,3.47
2022-08-16T16:52:45.175Z,4.10
2022-08-16T16:55:13.506Z,3.92
2022-08-16T16:58:00.750Z,3.38
2022-08-16T17:00:37.769Z,3.70
2022-08-16T17:03:06.028Z,3.20
2022-08-16T17:05:56.941Z,3.53
2022-08-16T17:08:30.656Z,4.03
2022-08-16T17:10:58.122Z,4.30
2022-08-16T17:13:27.612Z,4.10
2022-08-16T17:15:54.912Z,4.03
2022-08-16T17:19:14.478Z,3.70
2022-08-16T17:21:10.966Z,3.63
2022-08-16T17:23:58.996Z,3.67
2022-08-16T17:26:29.593Z,3.80
2022-08-16T17:29:02.422Z,4.05
2022-08-16T17:31:40.858Z,4.38
2022-08-16T17:34:29.224Z,4.07
2022-08-16T17:36:59.458Z,3.90
2022-08-16T17:39:29.529Z,3.90
2022-08-16T17:41:58.128Z,3.97
2022-08-16T17:44:25.421Z,4.38
2022-08-16T17:46:53.131Z,3.63
2022-08-16T17:49:20.997Z,3.90
2022-08-16T17:51:48.584Z,4.47
2022-08-16T17:54:16.997Z,4.38
2022-08-16T17:56:57.250Z,3.97
2022-08-16T17:59:24.668Z,3.67
2022-08-16T18:01:53.463Z,4.10
2022-08-16T18:04:48.880Z,4.13
2022-08-16T18:07:08.450Z,4.32
2022-08-16T18:09:40.902Z,4.07
2022-08-16T18:12:44.888Z,4.28
2022-08-16T18:15:04.847Z,4.10
2022-08-16T18:17:32.099Z,4.38
2022-08-16T18:19:59.327Z,4.03
2022-08-16T18:22:30.566Z,4.30
2022-08-16T18:24:58.034Z,4.40
2022-08-16T18:27:27.329Z,4.05
2022-08-16T18:29:54.969Z,4.55
2022-08-16T18:32:24.882Z,4.18
2022-08-16T18:34:54.335Z,4.05
2022-08-16T18:37:28.154Z,4.32
2022-08-16T18:39:56.698Z,4.30
2022-08-16T18:42:25.400Z,4.45
2022-08-16T18:44:52.535Z,4.07
2022-08-16T18:47:19.702Z,4.47
2022-08-16T18:49:46.905Z,4.13
2022-08-16T18:52:25.728Z,4.50
2022-08-16T18:55:03.056Z,4.15
2022-08-16T18:57:40.505Z,4.38
2022-08-16T19:00:11.393Z,4.72
2022-08-16T19:02:57.476Z,4.53
2022-08-16T19:05:27.483Z,4.70
2022-08-16T19:07:56.774Z,5.07
2022-08-16T19:10:24.156Z,5.00
2022-08-16T19:12:57.593Z,4.55
2022-08-16T19:15:28.814Z,4.68
2022-08-16T19:17:56.248Z,4.45
2022-08-16T19:20:24.918Z,4.95
2022-08-16T19:25:48.623Z,4.75
2022-08-16T19:28:21.766Z,5.18
2022-08-16T19:31:07.098Z,5.28
2022-08-16T19:33:37.109Z,5.47
2022-08-16T19:36:04.491Z,5.30
2022-08-16T19:38:34.622Z,5.63
2022-08-16T19:41:01.979Z,5.22
2022-08-16T19:43:32.615Z,5.80
2022-08-16T19:46:03.218Z,6.22
2022-08-16T19:48:34.773Z,5.90
2022-08-16T19:51:01.928Z,5.68
2022-08-16T19:53:29.193Z,6.80
2022-08-16T19:55:56.951Z,6.63
2022-08-16T19:58:24.102Z,6.30
2022-08-16T20:00:56.279Z,5.95
2022-08-16T20:03:24.875Z,6.78
2022-08-16T20:05:52.428Z,6.82
2022-08-16T20:08:19.885Z,6.57
2022-08-16T20:10:50.599Z,6.63
2022-08-16T20:13:19.354Z,6.22
2022-08-16T20:15:47.507Z,6.75
2022-08-16T20:18:23.066Z,6.88
2022-08-16T20:20:55.162Z,6.68
2022-08-16T20:23:24.946Z,7.00
2022-08-16T20:25:53.524Z,7.63
2022-08-16T20:28:50.033Z,7.25
2022-08-16T20:31:11.599Z,8.63
2022-08-16T20:33:39.189Z,8.43
2022-08-16T20:36:06.474Z,8.68
2022-08-16T20:38:38.321Z,8.40
2022-08-16T20:41:05.725Z,8.60
2022-08-16T20:43:35.976Z,8.07
2022-08-16T20:46:05.171Z,9.48
2022-08-16T20:48:32.335Z,7.85
2022-08-16T20:51:02.566Z,7.80
2022-08-16T20:53:29.696Z,7.53
2022-08-16T20:55:56.856Z,7.55
2022-08-16T20:58:23.991Z,10.18
2022-08-16T21:00:51.189Z,9.27
2022-08-16T21:03:18.454Z,8.43
2022-08-16T21:05:46.640Z,8.93
2022-08-16T21:08:52.509Z,8.07
2022-08-16T21:11:02.733Z,12.35
2022-08-16T21:13:33.780Z,8.85
2022-08-16T21:16:02.904Z,7.78
2022-08-16T21:18:30.233Z,9.73
2022-08-16T21:20:57.478Z,10.75
2022-08-16T21:23:25.013Z,9.50
2022-08-16T21:25:59.123Z,7.93
2022-08-16T21:31:09.571Z,7.85
2022-08-16T21:33:36.992Z,8.50
2022-08-16T21:36:04.449Z,9.05
2022-08-16T21:38:31.591Z,8.40
2022-08-16T21:41:03.095Z,9.40
2022-08-16T21:43:33.409Z,8.00
2022-08-16T21:46:04.559Z,7.95
2022-08-16T21:48:36.089Z,8.95
2022-08-16T21:51:08.006Z,9.35
2022-08-16T21:53:35.532Z,9.25
2022-08-16T21:56:03.303Z,8.98
2022-08-16T21:58:31.625Z,8.82
2022-08-16T22:00:59.186Z,9.48
2022-08-16T22:03:26.471Z,9.30
2022-08-16T22:06:13.485Z,9.13
2022-08-16T22:08:49.588Z,8.63
2022-08-16T22:11:21.791Z,9.77
2022-08-16T22:13:57.243Z,8.70
2022-08-16T22:16:30.060Z,9.77
2022-08-16T22:18:57.261Z,11.00
2022-08-16T22:21:24.900Z,8.00
2022-08-16T22:23:55.279Z,9.10
2022-08-16T22:26:30.961Z,8.75
2022-08-16T22:29:02.580Z,9.05
2022-08-16T22:31:30.035Z,13.85
2022-08-16T22:33:57.850Z,9.10
2022-08-16T22:36:28.748Z,8.43
2022-08-16T22:38:58.310Z,9.25
2022-08-16T22:41:26.387Z,11.70
2022-08-16T22:43:53.527Z,9.13
2022-08-16T22:46:20.779Z,9.73
2022-08-16T22:48:50.271Z,11.02
2022-08-16T22:51:18.015Z,16.58
2022-08-16T22:53:45.142Z,9.57
2022-08-16T22:56:12.275Z,12.75
2022-08-16T22:58:39.592Z,10.40
2022-08-16T23:01:07.647Z,9.25
2022-08-16T23:03:34.784Z,11.50
2022-08-16T23:06:01.924Z,10.48
2022-08-16T23:08:35.021Z,9.60
2022-08-16T23:11:12.109Z,9.70
2022-08-16T23:13:53.255Z,10.30
2022-08-16T23:16:21.872Z,10.52
2022-08-16T23:18:49.627Z,10.55
2022-08-16T23:21:18.010Z,10.35
2022-08-16T23:23:46.588Z,13.07
2022-08-16T23:29:04.447Z,10.30
2022-08-16T23:31:32.566Z,11.52
2022-08-16T23:33:59.915Z,11.35
2022-08-16T23:36:27.928Z,12.32
2022-08-16T23:38:55.052Z,10.90
2022-08-16T23:41:22.262Z,11.70
2022-08-16T23:43:49.365Z,11.32
2022-08-16T23:46:18.214Z,12.35
2022-08-16T23:49:57.595Z,11.18
2022-08-16T23:51:32.953Z,11.38
2022-08-16T23:54:01.122Z,10.70
2022-08-16T23:56:32.107Z,10.43
2022-08-16T23:59:07.940Z,9.90
